createdAt,value
2022-12-31T00:00:08.991Z,12.55
2022-12-31T00:02:36.334Z,12.58
2022-12-31T00:05:03.339Z,12.51
2022-12-31T00:07:29.957Z,12.45
2022-12-31T00:09:56.509Z,12.42
2022-12-31T00:12:23.101Z,12.40
2022-12-31T00:14:49.669Z,12.35
2022-12-31T00:17:16.225Z,12.34
2022-12-31T00:19:42.784Z,12.28
2022-12-31T00:22:09.408Z,12.17
2022-12-31T00:24:36.008Z,12.16
2022-12-31T00:27:02.692Z,12.07
2022-12-31T00:29:29.323Z,12.04
2022-12-31T00:31:55.869Z,12.07
2022-12-31T00:34:22.527Z,12.07
2022-12-31T00:36:49.172Z,12.03
2022-12-31T00:39:15.739Z,11.97
2022-12-31T00:41:44.068Z,11.95
2022-12-31T00:44:14.549Z,12.05
2022-12-31T00:49:07.161Z,12.01
2022-12-31T00:51:33.775Z,12.00
2022-12-31T00:54:00.476Z,11.98
2022-12-31T00:56:29.486Z,11.94
2022-12-31T00:58:56.274Z,11.98
2022-12-31T01:01:30.035Z,11.93
2022-12-31T01:04:04.113Z,11.89
2022-12-31T01:06:31.151Z,11.95
2022-12-31T01:08:57.886Z,11.94
2022-12-31T06:32:35.479Z,12.59
2022-12-31T06:35:02.067Z,12.68
2022-12-31T06:37:28.658Z,12.76
2022-12-31T06:39:55.245Z,12.78
2022-12-31T06:42:22.427Z,12.89
2022-12-31T06:44:49.129Z,12.96
2022-12-31T06:47:16.112Z,13.04
2022-12-31T06:49:43.225Z,13.06
2022-12-31T06:52:09.893Z,13.04
2022-12-31T06:54:37.283Z,13.10
2022-12-31T06:57:04.500Z,13.07
2022-12-31T06:59:31.862Z,13.14
2022-12-31T07:02:29.988Z,13.19
2022-12-31T07:05:09.155Z,13.19
2022-12-31T07:07:45.597Z,13.23
2022-12-31T07:10:29.811Z,13.21
2022-12-31T07:13:08.894Z,13.21
2022-12-31T07:16:08.610Z,13.21
2022-12-31T07:18:48.527Z,13.28
2022-12-31T07:21:18.679Z,13.36
2022-12-31T07:23:46.106Z,13.36
2022-12-31T07:26:26.054Z,13.37
2022-12-31T07:29:18.177Z,13.47
2022-12-31T07:32:03.791Z,13.48
2022-12-31T07:34:36.542Z,13.48
2022-12-31T07:37:15.159Z,13.44
2022-12-31T07:39:45.709Z,13.40
2022-12-31T07:42:29.161Z,13.31
2022-12-31T07:45:18.142Z,13.38
2022-12-31T07:47:45.132Z,13.40
2022-12-31T07:50:17.963Z,13.41
2022-12-31T07:52:46.105Z,13.36
2022-12-31T07:55:13.249Z,13.27
2022-12-31T07:57:55.753Z,13.21
2022-12-31T08:00:23.014Z,13.14
2022-12-31T08:03:04.378Z,13.10
2022-12-31T08:05:46.855Z,12.97
2022-12-31T08:08:29.255Z,12.93
2022-12-31T08:11:07.673Z,12.93
2022-12-31T08:13:35.091Z,12.88
2022-12-31T08:16:02.931Z,12.80
2022-12-31T08:18:29.880Z,12.79
2022-12-31T08:21:28.222Z,12.80
2022-12-31T08:24:09.794Z,12.73
2022-12-31T08:26:41.729Z,12.72
2022-12-31T08:29:15.243Z,12.70
2022-12-31T08:32:02.122Z,12.66
2022-12-31T08:34:40.040Z,12.66
2022-12-31T08:37:09.839Z,12.65
2022-12-31T08:40:20.969Z,12.69
2022-12-31T08:43:22.250Z,12.72
2022-12-31T08:45:52.512Z,12.80
2022-12-31T08:48:31.447Z,12.83
2022-12-31T08:50:58.763Z,12.93
2022-12-31T08:53:26.244Z,13.09
2022-12-31T08:56:00.921Z,13.14
2022-12-31T08:58:45.680Z,13.26
2022-12-31T09:01:15.176Z,13.40
2022-12-31T09:04:08.282Z,13.50
2022-12-31T09:06:44.522Z,13.59
2022-12-31T09:09:26.455Z,13.74
2022-12-31T09:12:14.806Z,13.82
2022-12-31T09:14:48.615Z,13.98
2022-12-31T09:17:49.492Z,14.08
2022-12-31T09:20:20.111Z,14.19
2022-12-31T09:22:47.299Z,14.30
2022-12-31T09:25:19.889Z,14.36
2022-12-31T09:28:03.649Z,14.38
2022-12-31T09:30:39.707Z,14.46
2022-12-31T09:33:16.637Z,14.57
2022-12-31T09:35:56.920Z,14.71
2022-12-31T09:38:37.601Z,14.70
2022-12-31T09:41:29.267Z,14.73
2022-12-31T09:44:27.990Z,14.71
2022-12-31T09:47:29.343Z,14.81
2022-12-31T09:50:26.916Z,14.88
2022-12-31T09:53:16.482Z,14.94
2022-12-31T09:55:55.911Z,14.89
2022-12-31T09:58:42.195Z,14.92
2022-12-31T10:01:59.614Z,14.98
2022-12-31T10:05:02.391Z,15.06
2022-12-31T10:07:53.443Z,15.11
2022-12-31T10:10:51.839Z,15.12
2022-12-31T10:13:45.604Z,15.13
2022-12-31T10:16:34.897Z,15.12
2022-12-31T10:19:39.709Z,15.23
2022-12-31T10:22:16.852Z,15.29
2022-12-31T10:24:56.599Z,15.26
2022-12-31T10:27:57.611Z,15.26
2022-12-31T10:30:25.426Z,15.29
2022-12-31T10:33:08.348Z,15.25
2022-12-31T10:35:58.567Z,15.16
2022-12-31T10:38:47.055Z,15.18
2022-12-31T10:41:41.706Z,15.13
2022-12-31T10:44:20.624Z,15.09
2022-12-31T10:47:27.955Z,15.05
2022-12-31T10:50:15.935Z,14.94
2022-12-31T10:53:01.111Z,14.81
2022-12-31T10:56:04.973Z,14.80
2022-12-31T10:58:40.666Z,14.84
2022-12-31T11:01:17.800Z,14.91
2022-12-31T11:04:23.954Z,14.94
2022-12-31T11:06:56.673Z,15.02
2022-12-31T11:09:57.772Z,15.26
2022-12-31T11:12:40.078Z,15.44
2022-12-31T11:15:06.937Z,15.63
2022-12-31T11:18:17.274Z,15.67
2022-12-31T11:20:56.463Z,15.76
2022-12-31T11:23:50.924Z,15.81
2022-12-31T11:27:09.004Z,15.76
2022-12-31T11:29:54.255Z,15.67
2022-12-31T11:32:51.391Z,15.50
2022-12-31T11:35:56.462Z,15.38
2022-12-31T11:38:29.618Z,15.28
2022-12-31T11:41:19.271Z,15.21
2022-12-31T11:44:33.633Z,15.12
2022-12-31T11:48:20.246Z,15.15
2022-12-31T11:50:35.703Z,15.08
2022-12-31T11:53:33.382Z,15.21
2022-12-31T11:56:15.241Z,15.28
2022-12-31T11:58:53.118Z,15.25
2022-12-31T12:01:30.681Z,15.12
2022-12-31T12:03:57.864Z,15.06
2022-12-31T12:06:28.535Z,15.03
2022-12-31T12:09:13.239Z,14.96
2022-12-31T12:11:41.280Z,14.94
2022-12-31T12:14:34.560Z,14.96
2022-12-31T12:17:05.192Z,14.91
2022-12-31T12:19:34.253Z,14.96
2022-12-31T12:22:15.583Z,14.99
2022-12-31T12:24:54.111Z,15.02
2022-12-31T12:27:24.086Z,15.02
2022-12-31T12:29:50.854Z,15.03
2022-12-31T12:32:20.658Z,15.05
2022-12-31T12:34:50.145Z,15.08
2022-12-31T12:37:35.653Z,15.16
2022-12-31T12:40:04.640Z,15.22
2022-12-31T12:42:31.582Z,15.15
2022-12-31T12:45:07.450Z,15.12
2022-12-31T12:47:34.915Z,15.21
2022-12-31T12:50:02.167Z,15.21
2022-12-31T12:52:59.546Z,15.15
2022-12-31T12:55:38.023Z,15.12
2022-12-31T12:58:19.312Z,15.05
2022-12-31T13:00:55.447Z,15.09
2022-12-31T13:04:00.025Z,15.03
2022-12-31T13:06:51.260Z,15.03
2022-12-31T13:09:40.117Z,14.94
2022-12-31T13:12:18.632Z,14.89
2022-12-31T13:14:51.899Z,14.88
2022-12-31T13:18:11.878Z,14.89
2022-12-31T13:20:48.762Z,14.92
2022-12-31T13:23:24.480Z,14.98
2022-12-31T13:26:17.078Z,14.95
2022-12-31T13:28:46.929Z,14.91
2022-12-31T13:31:19.243Z,14.96
2022-12-31T13:33:52.511Z,14.95
2022-12-31T13:36:21.597Z,14.98
2022-12-31T13:38:52.225Z,15.05
2022-12-31T13:41:25.330Z,15.05
2022-12-31T13:44:13.427Z,15.08
2022-12-31T13:47:07.652Z,15.02
2022-12-31T13:49:47.942Z,15.03
2022-12-31T13:52:40.421Z,15.15
2022-12-31T13:55:15.540Z,15.18
2022-12-31T13:58:00.807Z,15.26
2022-12-31T14:00:37.039Z,15.36
2022-12-31T14:03:17.961Z,15.43
2022-12-31T14:06:02.511Z,15.39
2022-12-31T14:08:29.288Z,15.32
2022-12-31T14:11:08.520Z,15.32
2022-12-31T14:14:00.848Z,15.23
2022-12-31T14:17:08.786Z,15.21
2022-12-31T14:19:55.448Z,15.16
2022-12-31T14:22:24.935Z,15.13
2022-12-31T14:24:52.310Z,15.09
2022-12-31T14:27:22.790Z,15.13
2022-12-31T14:29:58.175Z,15.13
2022-12-31T14:32:25.046Z,15.11
2022-12-31T14:35:17.414Z,15.21
2022-12-31T14:38:31.977Z,15.19
2022-12-31T14:41:01.620Z,15.32
2022-12-31T14:43:57.685Z,15.33
2022-12-31T14:46:29.846Z,15.35
2022-12-31T14:49:06.471Z,15.42
2022-12-31T14:51:35.994Z,15.39
2022-12-31T14:54:02.723Z,15.44
2022-12-31T14:56:45.098Z,15.50
2022-12-31T14:59:28.241Z,15.60
2022-12-31T15:01:56.731Z,15.60
2022-12-31T15:04:42.824Z,15.57
2022-12-31T15:07:44.645Z,15.61
2022-12-31T15:10:29.484Z,15.64
2022-12-31T15:13:06.696Z,15.63
2022-12-31T15:15:42.448Z,15.69
2022-12-31T15:18:35.967Z,15.66
2022-12-31T15:21:23.433Z,15.69
2022-12-31T15:23:50.272Z,15.71
2022-12-31T15:26:24.015Z,15.73
2022-12-31T15:29:00.049Z,15.80
2022-12-31T15:31:27.420Z,15.76
2022-12-31T15:34:04.555Z,15.74
2022-12-31T15:36:38.520Z,15.73
2022-12-31T15:39:11.311Z,15.64
2022-12-31T15:42:10.236Z,15.67
2022-12-31T15:44:51.401Z,15.70
2022-12-31T15:47:32.014Z,15.66
2022-12-31T15:50:03.884Z,15.70
2022-12-31T15:52:39.988Z,15.71
2022-12-31T15:55:07.690Z,15.71
2022-12-31T15:57:41.190Z,15.77
2022-12-31T16:00:20.066Z,15.74
2022-12-31T16:02:48.366Z,15.74
2022-12-31T16:05:24.786Z,15.70
2022-12-31T16:07:59.271Z,15.64
2022-12-31T16:10:31.901Z,15.71
2022-12-31T16:12:59.815Z,15.66
2022-12-31T16:15:32.749Z,15.71
2022-12-31T16:18:06.365Z,15.64
2022-12-31T16:20:34.745Z,15.67
2022-12-31T16:23:03.433Z,15.63
2022-12-31T16:25:33.369Z,15.60
2022-12-31T16:28:02.063Z,15.63
2022-12-31T16:30:32.490Z,15.64
2022-12-31T16:33:02.502Z,15.54
2022-12-31T16:35:38.232Z,15.64
2022-12-31T16:38:17.012Z,15.63
2022-12-31T16:40:58.853Z,15.54
2022-12-31T16:43:31.085Z,15.53
2022-12-31T16:46:30.626Z,15.46
2022-12-31T16:49:00.297Z,15.47
2022-12-31T16:51:32.170Z,15.50
2022-12-31T16:54:01.541Z,15.43
2022-12-31T16:56:38.367Z,15.50
2022-12-31T16:59:30.452Z,15.46
2022-12-31T17:02:01.641Z,15.49
